createdAt,value
2017-05-11T00:01:41.329Z,67.94
2017-05-11T00:03:56.767Z,68.33
2017-05-11T00:06:10.396Z,68.13
2017-05-11T00:06:50.817Z,68.33
2017-05-11T00:07:31.268Z,68.52
2017-05-11T00:08:11.640Z,68.13
2017-05-11T00:08:52.042Z,68.42
2017-05-11T00:09:32.438Z,68.23
2017-05-11T00:10:12.861Z,68.13
2017-05-11T00:10:53.303Z,68.33
2017-05-11T00:11:33.689Z,68.23
2017-05-11T00:12:14.195Z,68.33
2017-05-11T00:12:54.571Z,68.23
2017-05-11T00:13:35.033Z,68.23
2017-05-11T00:14:15.428Z,68.33
2017-05-11T00:14:55.806Z,68.13
2017-05-11T00:15:36.207Z,68.42
2017-05-11T00:16:16.624Z,68.23
2017-05-11T00:16:57.033Z,68.13
2017-05-11T00:17:37.468Z,68.23
2017-05-11T00:18:17.840Z,68.13
2017-05-11T00:18:59.077Z,67.85
2017-05-11T00:19:39.498Z,68.33
2017-05-11T00:20:19.906Z,68.42
2017-05-11T00:21:01.181Z,68.71
2017-05-11T00:21:41.614Z,68.9
2017-05-11T00:22:22.669Z,68.8
2017-05-11T00:23:03.075Z,68.61
2017-05-11T00:23:43.573Z,68.71
2017-05-11T00:24:24.038Z,68.9
2017-05-11T00:25:04.458Z,68.8
2017-05-11T00:25:44.814Z,69.09
2017-05-11T00:26:25.216Z,68.61
2017-05-11T00:27:05.610Z,69.46
2017-05-11T00:27:46.033Z,69.09
2017-05-11T00:28:26.554Z,69.18
2017-05-11T00:29:06.994Z,69.27
2017-05-11T00:29:47.406Z,68.99
2017-05-11T00:30:27.834Z,68.8
2017-05-11T00:32:26.069Z,68.9
2017-05-11T00:34:43.967Z,69.46
2017-05-11T00:35:24.392Z,69.46
2017-05-11T00:36:04.825Z,69.27
2017-05-11T00:36:45.296Z,69.46
2017-05-11T00:37:25.698Z,69.05
2017-05-11T00:38:06.932Z,69.27
2017-05-11T00:38:47.370Z,69.56
2017-05-11T00:39:27.773Z,69.09
2017-05-11T00:40:08.223Z,69.37
2017-05-11T00:40:48.618Z,69.18
2017-05-11T00:41:29.034Z,69.37
2017-05-11T00:42:09.501Z,69.27
2017-05-11T00:42:49.929Z,69.37
2017-05-11T00:43:30.419Z,69.37
2017-05-11T00:44:10.826Z,69.18
2017-05-11T00:44:52.274Z,69.37
2017-05-11T00:45:32.719Z,69.37
2017-05-11T00:46:13.125Z,69.37
2017-05-11T00:46:53.822Z,69.09
2017-05-11T00:47:34.206Z,69.46
2017-05-11T00:48:14.607Z,69.37
2017-05-11T00:48:55.130Z,69.46
2017-05-11T00:49:35.592Z,69.27
2017-05-11T00:50:16.021Z,69.46
2017-05-11T00:50:56.860Z,69.75
2017-05-11T00:51:37.268Z,69.85
2017-05-11T00:52:17.711Z,69.56
2017-05-11T00:52:58.136Z,69.71
2017-05-11T00:53:38.589Z,70.04
2017-05-11T00:54:18.969Z,69.85
2017-05-11T00:54:59.404Z,70.04
2017-05-11T00:55:39.800Z,70.23
2017-05-11T00:56:20.274Z,70
2017-05-11T00:57:00.673Z,69.91
2017-05-11T00:57:41.156Z,70
2017-05-11T00:58:21.596Z,70.19
2017-05-11T00:59:01.990Z,69.81
2017-05-11T00:59:42.397Z,69.81
2017-05-11T01:00:22.787Z,69.85
2017-05-11T01:01:03.318Z,69.71
2017-05-11T01:01:44.796Z,69.62
2017-05-11T01:02:25.231Z,69.71
2017-05-11T01:03:05.646Z,69.91
2017-05-11T01:03:46.099Z,69.91
2017-05-11T01:04:26.545Z,70.48
2017-05-11T01:05:06.933Z,70.51
2017-05-11T01:05:47.386Z,70.61
2017-05-11T01:06:27.782Z,70.32
2017-05-11T01:07:09.145Z,70.42
2017-05-11T01:07:49.560Z,70.42
2017-05-11T01:08:29.990Z,70.23
2017-05-11T01:09:11.139Z,70.13
2017-05-11T01:09:51.595Z,70.42
2017-05-11T01:10:32.003Z,70.61
2017-05-11T01:11:12.448Z,70.7
2017-05-11T01:11:52.831Z,70.7
2017-05-11T01:12:34.069Z,70.51
2017-05-11T01:13:14.561Z,70.7
2017-05-11T01:13:54.962Z,70.7
2017-05-11T01:14:35.363Z,70.7
2017-05-11T01:15:15.822Z,70.23
2017-05-11T01:15:56.914Z,70.42
2017-05-11T01:16:37.352Z,70.23
2017-05-11T01:17:18.346Z,70.23
2017-05-11T01:17:58.742Z,70.23
2017-05-11T01:18:41.060Z,70.32
2017-05-11T01:19:21.505Z,70.61
2017-05-11T01:20:01.948Z,70.51
2017-05-11T01:20:42.332Z,70.51
2017-05-11T01:21:22.753Z,70.42
2017-05-11T01:22:03.187Z,70.23
2017-05-11T01:22:45.064Z,70.23
2017-05-11T01:23:29.103Z,70.32
2017-05-11T01:24:10.171Z,70.42
2017-05-11T01:24:50.551Z,70.23
2017-05-11T01:25:32.558Z,70.42
2017-05-11T01:26:13.050Z,70.42
2017-05-11T01:26:54.081Z,70.61
2017-05-11T01:27:35.079Z,70.7
2017-05-11T01:28:18.297Z,69.75
2017-05-11T01:28:59.310Z,70.04
2017-05-11T01:31:16.699Z,69.85
2017-05-11T01:31:57.151Z,69.94
2017-05-11T01:32:39.323Z,70.04
2017-05-11T01:33:25.340Z,69.85
2017-05-11T01:34:08.406Z,69.94
2017-05-11T01:34:50.741Z,70.42
2017-05-11T01:35:32.738Z,70.23
2017-05-11T01:36:13.912Z,70.32
2017-05-11T01:36:54.280Z,70.13
2017-05-11T01:37:36.280Z,70.51
2017-05-11T01:38:27.598Z,70.7
2017-05-11T01:39:09.431Z,70.7
2017-05-11T01:39:49.785Z,70.42
2017-05-11T01:40:30.866Z,70.42
2017-05-11T01:41:21.747Z,70.89
2017-05-11T01:42:03.755Z,70.99
2017-05-11T01:42:45.937Z,70.99
2017-05-11T01:43:26.285Z,70.79
2017-05-11T01:44:06.721Z,71.18
2017-05-11T01:44:48.136Z,71.08
2017-05-11T01:45:28.557Z,71.08
2017-05-11T01:46:08.964Z,70.89
2017-05-11T01:46:49.345Z,71.18
2017-05-11T01:47:29.753Z,71.46
2017-05-11T01:48:10.163Z,71.66
2017-05-11T01:50:23.468Z,71.46
2017-05-11T01:51:03.880Z,71.56
2017-05-11T01:51:44.307Z,71.56
2017-05-11T01:52:24.707Z,71.66
2017-05-11T01:53:05.146Z,71.37
2017-05-11T01:53:45.558Z,71.56
2017-05-11T01:54:25.946Z,71.66
2017-05-11T01:55:06.376Z,71.66
2017-05-11T01:55:46.791Z,71.56
2017-05-11T01:56:27.247Z,71.52
2017-05-11T01:57:07.666Z,71.37
2017-05-11T01:57:48.093Z,71.37
2017-05-11T01:58:28.501Z,71.71
2017-05-11T01:59:08.905Z,71.81
2017-05-11T01:59:49.361Z,72
2017-05-11T02:00:29.728Z,71.9
2017-05-11T02:01:10.113Z,71.84
2017-05-11T02:01:50.568Z,71.81
2017-05-11T02:02:30.915Z,72
2017-05-11T02:03:11.309Z,71.9
2017-05-11T02:03:51.748Z,71.9
2017-05-11T02:04:32.143Z,72
2017-05-11T02:05:12.568Z,71.94
2017-05-11T02:05:53.001Z,71.9
2017-05-11T02:06:33.433Z,71.81
2017-05-11T02:07:13.836Z,71.9
2017-05-11T02:07:54.268Z,71.71
2017-05-11T02:08:34.643Z,71.94
2017-05-11T02:09:15.059Z,71.84
2017-05-11T02:09:55.439Z,71.81
2017-05-11T02:10:35.845Z,71.52
2017-05-11T02:11:16.244Z,72.03
2017-05-11T02:11:57.381Z,71.56
2017-05-11T02:12:37.824Z,71.62
2017-05-11T02:13:18.255Z,72
2017-05-11T02:13:58.725Z,72.03
2017-05-11T02:14:39.168Z,72
2017-05-11T02:15:19.574Z,72.03
2017-05-11T02:16:00.007Z,72.13
2017-05-11T02:16:45.022Z,72
2017-05-11T02:17:30.151Z,71.84
2017-05-11T02:18:12.155Z,72.13
2017-05-11T02:18:55.127Z,71.81
2017-05-11T02:19:36.463Z,72.19
2017-05-11T02:20:18.229Z,72.09
2017-05-11T02:20:59.560Z,72.28
2017-05-11T02:21:40.888Z,72.28
2017-05-11T02:22:21.319Z,72.66
2017-05-11T02:23:01.708Z,72.75
2017-05-11T02:23:45.624Z,72.66
2017-05-11T02:24:26.702Z,72.38
2017-05-11T02:25:08.704Z,72.47
2017-05-11T02:25:49.091Z,72.56
2017-05-11T02:26:29.494Z,72.47
2017-05-11T02:27:10.880Z,72.75
2017-05-11T02:27:51.247Z,72.38
2017-05-11T02:28:31.683Z,72.47
2017-05-11T02:29:12.054Z,72.56
2017-05-11T02:29:53.041Z,72.38
2017-05-11T02:30:34.235Z,72.28
2017-05-11T02:31:15.290Z,73.04
2017-05-11T02:31:56.234Z,72.75
2017-05-11T02:32:37.552Z,73.14
2017-05-11T02:33:18.653Z,73.14
2017-05-11T02:34:00.640Z,73.23
2017-05-11T02:34:41.075Z,72.95
2017-05-11T02:35:23.399Z,73.14
2017-05-11T02:36:03.728Z,73.14
2017-05-11T02:36:44.239Z,73.04
2017-05-11T02:37:25.449Z,72.95
2017-05-11T02:38:06.661Z,72.95
2017-05-11T02:38:47.061Z,73.04
2017-05-11T02:39:28.311Z,73.14
2017-05-11T02:40:10.202Z,72.95
2017-05-11T02:40:50.610Z,72.38
2017-05-11T02:41:31.647Z,72.79
2017-05-11T02:42:12.854Z,72.41
2017-05-11T02:42:53.302Z,72.41
2017-05-11T02:43:33.785Z,72.51
2017-05-11T02:44:14.211Z,72.41
2017-05-11T02:44:55.130Z,72.41
2017-05-11T02:45:36.037Z,72.41
2017-05-11T02:46:16.482Z,72.75
2017-05-11T02:46:56.902Z,72.38
2017-05-11T02:47:38.569Z,72.95
2017-05-11T02:48:19.620Z,73.04
2017-05-11T02:49:00.649Z,73.42
2017-05-11T02:49:42.638Z,73.9
2017-05-11T02:50:25.048Z,73.42
2017-05-11T02:51:06.128Z,73.61
2017-05-11T02:51:46.545Z,73.52
2017-05-11T02:52:27.548Z,74.27
2017-05-11T02:53:07.952Z,74.37
2017-05-11T02:53:49.128Z,74.47
2017-05-11T02:54:29.539Z,73.99
2017-05-11T02:55:11.810Z,74.27
2017-05-11T02:55:54.728Z,73.99
2017-05-11T02:56:35.149Z,73.9
2017-05-11T02:57:15.633Z,74.18
2017-05-11T02:57:56.018Z,73.52
2017-05-11T02:58:36.381Z,74.18
2017-05-11T02:59:16.800Z,74.18
2017-05-11T02:59:57.241Z,74.18
2017-05-11T03:00:38.551Z,73.9
2017-05-11T03:01:18.994Z,74.18
2017-05-11T03:01:59.391Z,74.27
2017-05-11T03:02:39.796Z,73.9
2017-05-11T03:03:22.140Z,74.08
2017-05-11T03:04:02.581Z,73.8
2017-05-11T03:04:42.946Z,74.27
2017-05-11T03:05:23.400Z,74.08
2017-05-11T03:06:03.832Z,74.08
2017-05-11T03:06:44.241Z,73.99
2017-05-11T03:07:24.732Z,74.18
2017-05-11T03:08:05.128Z,74.27
2017-05-11T03:08:45.565Z,74.18
2017-05-11T03:09:25.943Z,74.27
2017-05-11T03:10:06.377Z,74.18
2017-05-11T03:10:46.758Z,74.18
2017-05-11T03:11:27.199Z,74.08
2017-05-11T03:12:07.585Z,74.08
2017-05-11T03:12:47.962Z,74.27
2017-05-11T03:13:28.402Z,74.31
2017-05-11T03:14:08.842Z,74.27
2017-05-11T03:14:49.241Z,74.27
2017-05-11T03:15:29.696Z,74.31
2017-05-11T03:16:10.116Z,74.31
2017-05-11T03:16:50.531Z,74.37
2017-05-11T03:17:30.959Z,74.31
2017-05-11T03:18:11.370Z,74.18
2017-05-11T03:18:51.797Z,74.08
2017-05-11T03:19:32.241Z,74.27
2017-05-11T03:20:12.619Z,74.08
2017-05-11T03:20:53.007Z,74.27
2017-05-11T03:21:33.440Z,74.08
2017-05-11T03:22:13.813Z,74.27
2017-05-11T03:22:54.267Z,73.9
2017-05-11T03:23:34.708Z,73.8
2017-05-11T03:24:15.873Z,74.18
2017-05-11T03:24:56.272Z,74.75
2017-05-11T03:25:36.671Z,74.75
2017-05-11T03:27:49.473Z,74.27
2017-05-11T03:28:29.901Z,74.56
2017-05-11T03:29:10.294Z,74.37
2017-05-11T03:29:50.715Z,74.18
2017-05-11T03:30:31.133Z,74.08
2017-05-11T03:31:11.532Z,74.66
2017-05-11T03:31:51.940Z,74.47
2017-05-11T03:32:32.373Z,74.56
2017-05-11T03:33:12.754Z,74.47
2017-05-11T03:33:53.194Z,74.27
2017-05-11T03:34:33.626Z,74.47
2017-05-11T03:35:14.056Z,74.27
2017-05-11T03:35:54.450Z,74.66
2017-05-11T03:36:35.763Z,74.85
2017-05-11T03:37:16.129Z,75.13
2017-05-11T03:37:56.555Z,74.75
2017-05-11T03:38:36.938Z,74.08
2017-05-11T03:39:17.377Z,74.69
2017-05-11T03:39:57.774Z,74.66
2017-05-11T03:40:38.817Z,74.47
2017-05-11T03:41:21.063Z,74.56
2017-05-11T03:42:02.334Z,74.47
2017-05-11T03:42:43.282Z,74.75
2017-05-11T03:43:26.255Z,74.75
2017-05-11T03:44:06.663Z,74.75
2017-05-11T03:44:48.032Z,74.85
2017-05-11T03:45:29.361Z,74.85
2017-05-11T03:46:09.779Z,74.88
2017-05-11T03:46:51.804Z,75.32
2017-05-11T03:47:33.201Z,74.98
2017-05-11T03:48:15.292Z,74.98
2017-05-11T03:48:55.788Z,75.07
2017-05-11T03:51:14.612Z,74.98
2017-05-11T03:51:55.014Z,74.98
2017-05-11T03:52:35.423Z,75.07
2017-05-11T03:53:15.910Z,75.17
2017-05-11T03:53:56.379Z,75.17
2017-05-11T03:54:36.832Z,74.98
2017-05-11T03:55:17.224Z,75.07
2017-05-11T03:57:15.003Z,75.07
2017-05-11T03:57:55.373Z,74.98
2017-05-11T03:58:35.797Z,75.07
2017-05-11T03:59:16.322Z,75.07
2017-05-11T03:59:56.870Z,74.98
2017-05-11T04:00:37.235Z,74.92
2017-05-11T04:01:17.686Z,75.21
2017-05-11T04:01:58.285Z,74.92
2017-05-11T04:02:38.815Z,74.54
2017-05-11T04:03:19.161Z,74.44
2017-05-11T04:03:59.536Z,74.54
2017-05-11T04:04:40.052Z,74.63
2017-05-11T04:05:20.448Z,75.11
2017-05-11T04:06:00.878Z,74.26
2017-05-11T04:06:41.347Z,74.26
2017-05-11T04:07:21.869Z,74.63
2017-05-11T04:08:02.334Z,74.54
2017-05-11T04:08:43.925Z,74.35
2017-05-11T04:09:25.593Z,74.73
2017-05-11T04:10:06.199Z,74.54
2017-05-11T04:10:46.805Z,74.2
2017-05-11T04:11:27.533Z,74.26
2017-05-11T04:12:07.873Z,74.63
2017-05-11T04:12:48.410Z,74.26
2017-05-11T04:13:28.912Z,74.63
2017-05-11T04:14:09.354Z,74.96
2017-05-11T04:14:49.789Z,74.2
2017-05-11T04:15:30.338Z,75.15
2017-05-11T04:16:11.138Z,74.58
2017-05-11T04:16:51.799Z,74.87
2017-05-11T04:17:32.631Z,74.87
2017-05-11T04:18:13.397Z,74.39
2017-05-11T04:18:53.903Z,74.77
2017-05-11T04:19:34.375Z,74.29
2017-05-11T04:20:14.854Z,74.96
2017-05-11T04:20:55.335Z,74.29
2017-05-11T04:21:35.739Z,73.91
2017-05-11T04:22:16.295Z,74.01
2017-05-11T04:22:56.772Z,74.39
2017-05-11T04:23:37.210Z,74.29
2017-05-11T04:24:17.565Z,74.2
2017-05-11T04:24:58.558Z,74.1
2017-05-11T04:25:38.890Z,74.01
2017-05-11T04:26:19.289Z,74.01
2017-05-11T04:27:00.458Z,74.29
2017-05-11T04:27:41.168Z,74.29
2017-05-11T04:28:21.469Z,74.1
2017-05-11T04:29:02.052Z,74.1
2017-05-11T04:29:43.045Z,73.63
2017-05-11T04:30:25.868Z,74.01
2017-05-11T04:31:07.612Z,74.01
2017-05-11T04:31:48.096Z,74.24
2017-05-11T04:32:29.267Z,73.91
2017-05-11T04:33:10.450Z,74.14
2017-05-11T04:33:50.959Z,74.33
2017-05-11T04:34:31.383Z,74.33
2017-05-11T04:35:12.062Z,74.33
2017-05-11T04:35:52.530Z,74.52
2017-05-11T04:36:33.519Z,74.24
2017-05-11T04:37:14.242Z,74.52
2017-05-11T04:37:54.710Z,74.33
2017-05-11T04:38:35.143Z,74.33
2017-05-11T04:39:15.715Z,74.43
2017-05-11T04:39:56.595Z,74.62
2017-05-11T04:40:37.302Z,74.33
2017-05-11T04:41:18.082Z,74.24
2017-05-11T04:41:58.799Z,74.71
2017-05-11T04:42:39.418Z,74.33
2017-05-11T04:43:20.671Z,74.43
2017-05-11T04:44:02.034Z,74.14
2017-05-11T04:44:42.529Z,74.14
2017-05-11T04:45:23.295Z,74.14
2017-05-11T04:46:03.815Z,74.14
2017-05-11T04:46:44.615Z,74.14
2017-05-11T04:47:25.129Z,74.04
2017-05-11T04:48:06.188Z,74.33
2017-05-11T04:48:47.473Z,74.14
2017-05-11T04:49:29.200Z,73.95
2017-05-11T04:50:09.834Z,74.52
2017-05-11T04:50:50.421Z,74.24
2017-05-11T04:51:31.078Z,74.14
2017-05-11T04:52:11.539Z,74.33
2017-05-11T04:52:52.453Z,74.04
2017-05-11T04:53:33.399Z,74.14
2017-05-11T04:54:14.463Z,74.43
2017-05-11T04:54:55.197Z,74.24
2017-05-11T04:55:35.580Z,73.85
2017-05-11T04:56:17.009Z,74.43
2017-05-11T04:56:57.828Z,74.33
2017-05-11T04:57:40.313Z,74.43
2017-05-11T04:58:21.243Z,74.33
2017-05-11T04:59:01.896Z,74.33
2017-05-11T04:59:42.652Z,74.52
2017-05-11T05:00:23.510Z,74.62
2017-05-11T05:01:03.860Z,74.33
2017-05-11T05:01:44.391Z,74.8
2017-05-11T05:02:25.037Z,74.33
2017-05-11T05:03:05.413Z,74.33
2017-05-11T05:03:45.974Z,74.62
2017-05-11T05:04:26.650Z,74.65
2017-05-11T05:05:07.114Z,74.75
2017-05-11T05:05:47.842Z,74.27
2017-05-11T05:06:28.396Z,74.75
2017-05-11T05:07:09.086Z,74.56
2017-05-11T05:07:49.478Z,74.37
2017-05-11T05:08:30.564Z,74.65
2017-05-11T05:09:11.152Z,73.99
2017-05-11T05:09:51.779Z,74.18
2017-05-11T05:10:32.353Z,74.37
2017-05-11T05:11:12.753Z,74.5
2017-05-11T05:11:53.251Z,74.02
2017-05-11T05:12:33.760Z,73.83
2017-05-11T05:13:14.215Z,73.83
2017-05-11T05:13:55.791Z,73.83
2017-05-11T05:14:36.244Z,73.26
2017-05-11T05:15:16.846Z,73.49
2017-05-11T05:15:57.312Z,73.21
2017-05-11T05:16:40.203Z,73.21
2017-05-11T05:17:20.795Z,72.82
2017-05-11T05:18:01.227Z,72.76
2017-05-11T05:18:41.649Z,73.05
2017-05-11T05:19:22.021Z,72.57
2017-05-11T05:20:02.480Z,72.19
2017-05-11T05:20:42.888Z,71.62
2017-05-11T05:21:23.335Z,71.62
2017-05-11T05:22:03.939Z,71.94
2017-05-11T05:22:44.374Z,71.66
2017-05-11T05:23:24.846Z,71.56
2017-05-11T05:25:23.267Z,70.83
2017-05-11T05:26:03.696Z,70.54
2017-05-11T05:26:44.113Z,70.73
2017-05-11T05:27:25.034Z,70.39
2017-05-11T05:28:05.457Z,70.1
2017-05-11T05:28:46.249Z,69.91
2017-05-11T05:29:26.687Z,69.43
2017-05-11T05:31:14.890Z,69.43
2017-05-11T05:31:55.291Z,69.15
2017-05-11T05:32:35.849Z,69.37
2017-05-11T05:33:16.195Z,68.99
2017-05-11T05:33:56.576Z,69.09
2017-05-11T05:34:37.082Z,69.27
2017-05-11T05:35:17.964Z,68.8
2017-05-11T05:35:58.409Z,68.9
2017-05-11T05:36:38.891Z,68.61
2017-05-11T05:37:19.266Z,68.55
2017-05-11T05:37:59.691Z,68.26
2017-05-11T05:38:40.062Z,69.02
2017-05-11T05:39:22.318Z,68.93
2017-05-11T05:40:02.767Z,68.64
2017-05-11T05:40:43.272Z,68.55
2017-05-11T05:41:23.673Z,68.07
2017-05-11T05:42:04.159Z,68.07
2017-05-11T05:42:44.557Z,68.07
2017-05-11T05:43:24.977Z,67.82
2017-05-11T05:44:06.305Z,68.01
2017-05-11T05:45:54.068Z,67.91
2017-05-11T05:46:34.497Z,68.01
2017-05-11T05:47:14.905Z,68.01
2017-05-11T05:47:55.285Z,67.72
2017-05-11T05:48:35.709Z,67.63
2017-05-11T05:49:16.124Z,67.66
2017-05-11T05:49:56.591Z,67.66
2017-05-11T05:50:36.992Z,67.94
2017-05-11T05:51:17.399Z,67.27
2017-05-11T05:51:57.836Z,67.27
2017-05-11T05:52:38.259Z,67.37
2017-05-11T05:53:18.706Z,67.27
2017-05-11T05:53:59.119Z,66.89
2017-05-11T05:54:39.547Z,67.08
2017-05-11T05:55:19.990Z,67.37
2017-05-11T05:56:02.104Z,67.47
2017-05-11T05:56:42.551Z,67.08
2017-05-11T05:57:23.046Z,67.08
2017-05-11T05:58:03.441Z,67.18
2017-05-11T05:58:43.889Z,67.37
2017-05-11T05:59:24.289Z,67.11
2017-05-11T06:00:04.692Z,67.11
2017-05-11T06:00:45.127Z,67.6
2017-05-11T06:01:25.521Z,67.41
2017-05-11T06:02:06.009Z,67.31
2017-05-11T06:02:46.468Z,67.15
2017-05-11T06:03:27.960Z,66.86
2017-05-11T06:04:09.127Z,66.29
2017-05-11T06:04:50.125Z,66.67
2017-05-11T06:05:30.604Z,66.19
2017-05-11T06:06:11.081Z,66.38
2017-05-11T06:06:51.450Z,65.84
2017-05-11T06:07:31.884Z,65.65
2017-05-11T06:08:12.416Z,65.46
2017-05-11T06:08:53.180Z,65.75
2017-05-11T06:09:33.613Z,65.46
2017-05-11T06:10:14.035Z,64.98
2017-05-11T06:10:55.237Z,64.89
2017-05-11T06:11:35.713Z,64.69
2017-05-11T06:12:17.791Z,64.59
2017-05-11T06:12:58.230Z,64.59
2017-05-11T06:13:39.297Z,64.59
2017-05-11T06:14:20.718Z,64.69
2017-05-11T06:15:01.136Z,64.89
2017-05-11T06:15:41.681Z,64.31
2017-05-11T06:16:22.141Z,64.12
2017-05-11T06:18:19.974Z,64.25
2017-05-11T06:19:00.327Z,63.57
2017-05-11T06:19:40.700Z,63.48
2017-05-11T06:20:21.195Z,62.9
2017-05-11T06:21:01.596Z,63
2017-05-11T06:21:42.010Z,63.29
2017-05-11T06:22:23.206Z,63.51
2017-05-11T06:23:03.641Z,62.93
2017-05-11T06:23:44.047Z,62.55
2017-05-11T06:24:24.580Z,62.45
2017-05-11T06:25:05.101Z,62.36
2017-05-11T06:25:46.291Z,61.81
2017-05-11T06:26:26.711Z,61.81
2017-05-11T06:27:07.171Z,61.43
2017-05-11T06:27:47.584Z,61.05
2017-05-11T06:28:27.968Z,61.33
2017-05-11T06:29:08.375Z,60.95
2017-05-11T06:29:48.804Z,61.14
2017-05-11T06:30:29.253Z,60.75
2017-05-11T06:31:09.672Z,60.66
2017-05-11T06:31:50.087Z,60.66
2017-05-11T06:32:30.535Z,60.08
2017-05-11T06:33:10.974Z,59.99
2017-05-11T06:33:51.475Z,60.28
2017-05-11T06:34:32.434Z,59.8
2017-05-11T06:35:13.708Z,59.8
2017-05-11T06:35:54.167Z,59.7
2017-05-11T06:36:35.098Z,59.7
2017-05-11T06:37:15.519Z,59.8
2017-05-11T06:37:55.917Z,59.51
2017-05-11T06:38:36.365Z,59.22
2017-05-11T06:39:16.735Z,59.8
2017-05-11T06:39:57.236Z,59.32
2017-05-11T06:40:37.651Z,59.32
2017-05-11T06:41:18.063Z,59.89
2017-05-11T06:41:59.399Z,59.41
2017-05-11T06:42:39.784Z,59.99
2017-05-11T06:43:20.366Z,59.32
2017-05-11T06:44:00.704Z,59.51
2017-05-11T06:44:41.255Z,60.08
2017-05-11T06:45:21.690Z,59.61
2017-05-11T06:46:02.128Z,59.96
2017-05-11T06:46:42.557Z,59.96
2017-05-11T06:47:22.999Z,60.08
2017-05-11T06:48:03.432Z,60.47
2017-05-11T06:48:43.816Z,60.18
2017-05-11T06:49:24.261Z,59.89
2017-05-11T06:50:04.697Z,59.7
2017-05-11T06:50:45.132Z,59.51
2017-05-11T06:51:25.549Z,59.34
2017-05-11T06:52:05.992Z,59.44
2017-05-11T06:52:46.450Z,59.54
2017-05-11T06:53:26.854Z,58.96
2017-05-11T06:54:07.292Z,58.89
2017-05-11T06:54:47.673Z,58.22
2017-05-11T06:56:41.447Z,57.65
2017-05-11T06:57:21.857Z,57.39
2017-05-11T06:58:02.290Z,57.2
2017-05-11T06:58:42.696Z,57.48
2017-05-11T06:59:23.139Z,57.39
2017-05-11T07:00:05.497Z,57.58
2017-05-11T07:00:45.934Z,56.81
2017-05-11T07:01:26.460Z,56.84
2017-05-11T07:02:07.503Z,56.74
2017-05-11T07:02:48.050Z,56.55
2017-05-11T07:03:28.429Z,55.88
2017-05-11T07:04:09.589Z,56.1
2017-05-11T07:04:50.006Z,56
2017-05-11T07:05:30.470Z,55.52
2017-05-11T07:06:10.893Z,55.52
2017-05-11T07:08:28.871Z,54
2017-05-11T07:09:09.310Z,53.81
2017-05-11T07:09:51.755Z,53.43
2017-05-11T07:10:35.465Z,52.97
2017-05-11T07:11:15.881Z,52.87
2017-05-11T07:11:56.306Z,51.94
2017-05-11T07:12:38.471Z,51.36
2017-05-11T07:13:18.873Z,51.56
2017-05-11T07:13:59.351Z,50.49
2017-05-11T07:14:39.766Z,49.65
2017-05-11T07:15:24.353Z,49.46
2017-05-11T07:16:04.764Z,49.1
2017-05-11T07:16:46.954Z,49.19
2017-05-11T07:17:29.144Z,48.35
2017-05-11T07:18:10.618Z,48.25
2017-05-11T07:18:52.963Z,47.99
2017-05-11T07:19:33.414Z,48.18
2017-05-11T07:20:13.849Z,48.28
2017-05-11T07:20:54.269Z,48.21
2017-05-11T07:21:34.665Z,48.3
2017-05-11T07:22:15.215Z,47.89
2017-05-11T07:22:59.897Z,48.08
2017-05-11T07:23:42.136Z,48.08
2017-05-11T07:24:22.542Z,47.89
2017-05-11T07:25:02.980Z,48.08
2017-05-11T07:25:45.213Z,47.99
2017-05-11T07:26:25.670Z,48.47
2017-05-11T07:27:06.110Z,48.54
2017-05-11T07:27:46.575Z,48.25
2017-05-11T07:28:27.001Z,48.23
2017-05-11T07:29:08.952Z,48.23
2017-05-11T07:29:49.405Z,48.42
2017-05-11T07:30:31.711Z,48.42
2017-05-11T07:31:12.133Z,48.81
2017-05-11T07:31:54.419Z,48.42
2017-05-11T07:32:34.825Z,48.44
2017-05-11T07:33:15.222Z,48.06
2017-05-11T07:33:57.173Z,47.58
2017-05-11T07:34:38.482Z,47.8
2017-05-11T07:35:20.503Z,47.24
2017-05-11T07:36:03.458Z,46.49
2017-05-11T07:36:43.925Z,45.81
2017-05-11T07:37:24.337Z,45.06
2017-05-11T07:38:04.757Z,43.95
2017-05-11T07:38:45.177Z,43.29
2017-05-11T07:39:25.658Z,42.65
2017-05-11T07:40:08.654Z,41.82
2017-05-11T07:40:52.383Z,40.77
2017-05-11T07:41:37.679Z,39.86
2017-05-11T07:42:18.079Z,39.1
2017-05-11T07:42:58.554Z,37.97
2017-05-11T07:43:38.983Z,36.94
2017-05-11T07:44:19.425Z,35.8
2017-05-11T07:44:59.837Z,35.12
2017-05-11T07:47:22.099Z,34.47
2017-05-11T07:49:36.624Z,32.45
2017-05-11T07:50:17.017Z,31.96
2017-05-11T07:50:57.531Z,31.87
2017-05-11T07:51:39.715Z,31.88
2017-05-11T07:52:20.783Z,31.8
2017-05-11T07:53:01.986Z,31.32
2017-05-11T07:53:43.248Z,30.93
2017-05-11T07:54:23.672Z,30.54
2017-05-11T07:55:04.074Z,30.64
2017-05-11T07:55:44.521Z,30.74
2017-05-11T07:56:24.984Z,30.52
2017-05-11T07:57:05.450Z,30.62
2017-05-11T07:57:45.845Z,30.62
2017-05-11T07:59:35.694Z,29.45
2017-05-11T08:00:16.144Z,29.06
2017-05-11T08:00:56.568Z,28.97
2017-05-11T08:01:37.066Z,28.58
2017-05-11T08:02:17.528Z,28.69
2017-05-11T08:02:57.920Z,28.4
2017-05-11T08:03:38.367Z,27.33
2017-05-11T08:04:18.799Z,27.53
2017-05-11T08:04:59.236Z,27.35
2017-05-11T08:05:41.647Z,26.96
2017-05-11T08:06:23.695Z,26.86
2017-05-11T08:07:04.684Z,26.46
2017-05-11T08:07:45.961Z,25.79
2017-05-11T08:08:27.291Z,26
2017-05-11T08:09:07.708Z,25.71
2017-05-11T08:09:49.559Z,25.32
2017-05-11T08:10:30.790Z,25.03
2017-05-11T08:12:23.699Z,24.54
2017-05-11T08:13:04.154Z,24.53
2017-05-11T08:13:45.554Z,24.99
2017-05-11T08:15:41.811Z,25.95
2017-05-11T08:16:23.226Z,26.04
2017-05-11T08:17:03.681Z,26.04
2017-05-11T08:17:44.103Z,26.04
2017-05-11T08:18:28.263Z,26.14
2017-05-11T08:19:09.276Z,26.04
2017-05-11T08:19:50.512Z,25.74
2017-05-11T08:20:31.954Z,25.65
2017-05-11T08:21:13.279Z,25.73
2017-05-11T08:21:54.481Z,25.73
2017-05-11T08:22:34.953Z,25.15
2017-05-11T08:23:19.680Z,24.96
2017-05-11T08:24:00.127Z,24.95
2017-05-11T08:24:40.588Z,24.65
2017-05-11T08:25:23.370Z,23.77
2017-05-11T08:26:03.824Z,24.07
2017-05-11T08:26:44.858Z,23.87
2017-05-11T08:27:28.660Z,23.88
2017-05-11T08:28:09.119Z,23.68
2017-05-11T08:28:50.185Z,23.58
2017-05-11T08:29:30.617Z,23.55
2017-05-11T08:30:11.961Z,24.03
2017-05-11T08:30:52.345Z,24.3
2017-05-11T08:31:33.666Z,24.58
2017-05-11T08:32:14.121Z,24.85
2017-05-11T08:32:56.356Z,25.02
2017-05-11T08:33:37.372Z,25.78
2017-05-11T08:34:17.754Z,26.54
2017-05-11T08:34:58.171Z,27
2017-05-11T08:35:39.530Z,27.76
2017-05-11T08:36:19.914Z,28.04
2017-05-11T08:37:00.345Z,28.9
2017-05-11T08:37:40.804Z,28.98
2017-05-11T08:38:21.243Z,29.17
2017-05-11T08:40:09.176Z,30.04
2017-05-11T08:40:49.591Z,30.21
2017-05-11T08:41:30.053Z,30.41
2017-05-11T08:42:10.435Z,30.49
2017-05-11T08:42:50.868Z,30.78
2017-05-11T08:43:31.318Z,30.68
2017-05-11T08:44:11.720Z,30.78
2017-05-11T08:44:52.188Z,30.96
2017-05-11T08:45:33.121Z,31.15
2017-05-11T08:46:13.568Z,31.23
2017-05-11T08:46:54.024Z,31.71
2017-05-11T08:47:34.457Z,31.99
2017-05-11T08:48:14.866Z,32.17
2017-05-11T08:48:55.311Z,32.17
2017-05-11T08:49:35.748Z,32.65
2017-05-11T08:50:16.175Z,33.12
2017-05-11T08:50:56.622Z,32.92
2017-05-11T08:51:37.041Z,33.39
2017-05-11T08:53:49.862Z,34.24
2017-05-11T08:54:30.277Z,34.52
2017-05-11T08:55:10.753Z,34.22
2017-05-11T08:55:51.138Z,34.32
2017-05-11T08:56:31.580Z,34.61
2017-05-11T08:57:12.010Z,34.52
2017-05-11T08:57:52.504Z,34.8
2017-05-11T08:58:32.869Z,34.9
2017-05-11T08:59:13.326Z,35.1
2017-05-11T08:59:53.745Z,35.1
2017-05-11T09:00:34.160Z,34.9
2017-05-11T09:01:14.604Z,35
2017-05-11T09:01:55.040Z,35.1
2017-05-11T09:02:35.435Z,35.11
2017-05-11T09:03:15.837Z,34.92
2017-05-11T09:03:57.090Z,34.84
2017-05-11T09:04:37.545Z,34.08
2017-05-11T09:05:18.004Z,33.72
2017-05-11T09:05:58.417Z,33.07
2017-05-11T09:06:38.824Z,32.89
2017-05-11T09:07:19.245Z,32.23
2017-05-11T09:07:59.684Z,31.47
2017-05-11T09:08:40.123Z,30.82
2017-05-11T09:09:20.537Z,30.54
2017-05-11T09:10:00.990Z,29.87
2017-05-11T09:11:59.196Z,29.87
2017-05-11T09:12:39.638Z,29.95
2017-05-11T09:13:20.062Z,30.05
2017-05-11T09:14:00.488Z,30.23
2017-05-11T09:14:40.902Z,30.79
2017-05-11T09:16:54.383Z,31.65
2017-05-11T09:17:34.792Z,31.94
2017-05-11T09:18:15.217Z,31.56
2017-05-11T09:18:55.668Z,31.74
2017-05-11T09:19:36.088Z,32.23
2017-05-11T09:20:16.536Z,32.23
2017-05-11T09:20:56.916Z,31.74
2017-05-11T09:21:37.349Z,31.65
2017-05-11T09:22:17.773Z,31.96
2017-05-11T09:22:58.248Z,31.47